Apple Valley, North Dakota
Current Conditions -  °F | °C
As of 12:52 AM on Tuesday 21 Oct 2014 (Local Time) from KBIS Reporting Station
Clear Clear  
Wind Chill: 11°   Ceiling: Unl
Heat Index: 11°   Visibility: 10mi
Dew Point:   Wind: 10mph
Humidity: 50%   Direction: 100°E
Pressure: 29.92"   Gusts: NA
Location:  46.8954°N, 100.519°W
Report Text: KBIS 210552Z AUTO 10009KT 10SM CLR 11/01 A2992 RMK AO2 SLP133 T01110011 10128 20089 402281011 58008
Loading
Personal Weather Stations






























Interactive Weather Map
Tropical Storm Tracking
New forecast layout! Learn more

10-Day Weather Forecast

Advertisements
Track Severe Weather on mobile